Time;durP1;ratioP1;P1;durP2;ratioP2;P2;SDS_P1;SDS_P2;PMS_P1;PMS_P2;Temp;Humidity;BMP_temperature;BMP_pressure;BME280_temperature;BME280_humidity;BME280_pressure;Samples;Min_cycle;Max_cycle;Signal;HPM_P1;HPM_P2
2021/10/17 00:01:13;;;;;;;31.30;19.10;;;11.30;99.90;;;;;;5052217;28;20073;-56
2021/10/17 00:03:39;;;;;;;35.95;19.73;;;11.30;99.90;;;;;;5051104;28;20025;-58
2021/10/17 00:06:05;;;;;;;27.88;18.55;;;11.20;99.90;;;;;;5052044;28;20368;-57
2021/10/17 00:08:31;;;;;;;28.45;17.60;;;11.20;99.90;;;;;;5051233;28;20427;-59
2021/10/17 00:10:57;;;;;;;28.02;18.52;;;11.10;99.90;;;;;;5051927;28;20432;-56
2021/10/17 00:13:23;;;;;;;29.08;18.15;;;11.10;99.90;;;;;;5050918;28;20061;-56
2021/10/17 00:15:49;;;;;;;31.05;18.75;;;11.00;99.90;;;;;;5051678;28;20316;-56
2021/10/17 00:18:15;;;;;;;29.38;17.63;;;11.00;99.90;;;;;;5051194;28;20035;-59
2021/10/17 00:20:41;;;;;;;28.70;18.95;;;11.00;99.90;;;;;;5051649;28;20036;-58
2021/10/17 00:23:07;;;;;;;34.72;19.95;;;11.00;99.90;;;;;;5042309;28;20033;-56
2021/10/17 00:25:33;;;;;;;28.92;19.13;;;10.90;99.90;;;;;;5045417;28;20104;-57
2021/10/17 00:27:59;;;;;;;29.95;20.17;;;10.90;99.90;;;;;;5046307;28;20532;-60
2021/10/17 00:30:25;;;;;;;34.35;21.25;;;10.90;99.90;;;;;;5050649;28;20084;-61
2021/10/17 00:32:51;;;;;;;33.97;20.25;;;10.90;99.90;;;;;;5050394;28;20111;-56
2021/10/17 00:35:17;;;;;;;31.15;21.30;;;10.90;99.90;;;;;;5050987;28;20390;-56
2021/10/17 00:37:45;;;;;;;37.15;21.67;;;11.00;99.90;;;;;;5051192;28;20033;-56
2021/10/17 00:40:16;;;;;;;40.53;24.90;;;11.00;99.90;;;;;;5050607;28;20182;-57
2021/10/17 00:42:43;;;;;;;49.78;24.95;;;11.10;99.90;;;;;;5051287;28;20486;-59
2021/10/17 00:45:12;;;;;;;42.13;25.33;;;11.20;99.90;;;;;;5043328;28;20052;-60
2021/10/17 00:47:38;;;;;;;47.33;26.05;;;11.20;99.90;;;;;;5045180;28;20036;-57
2021/10/17 00:50:06;;;;;;;47.33;27.38;;;11.30;99.90;;;;;;5036865;28;20496;-59
2021/10/17 00:52:33;;;;;;;58.03;32.85;;;11.30;99.90;;;;;;5033220;28;20134;-56
2021/10/17 00:54:58;;;;;;;51.88;30.35;;;11.30;99.90;;;;;;5050487;28;20037;-53
2021/10/17 00:57:24;;;;;;;47.22;28.23;;;11.30;99.90;;;;;;5051205;28;20029;-55
2021/10/17 00:59:50;;;;;;;53.97;29.92;;;11.30;99.90;;;;;;5050200;28;20771;-54
2021/10/17 01:02:16;;;;;;;48.63;27.50;;;11.30;99.90;;;;;;5050477;28;20029;-54
2021/10/17 01:04:42;;;;;;;56.50;30.30;;;11.30;99.90;;;;;;5044669;28;20025;-54
2021/10/17 01:07:09;;;;;;;56.65;32.00;;;11.30;99.90;;;;;;5050757;28;20033;-55
2021/10/17 01:09:36;;;;;;;55.63;29.92;;;11.30;99.90;;;;;;5050040;28;20057;-54
2021/10/17 01:12:02;;;;;;;47.25;28.88;;;11.40;99.90;;;;;;5050607;28;20513;-56
2021/10/17 01:14:28;;;;;;;52.53;30.45;;;11.40;99.90;;;;;;5050130;28;20068;-56
2021/10/17 01:16:53;;;;;;;55.42;31.02;;;11.40;99.90;;;;;;5050744;28;20025;-60
2021/10/17 01:19:20;;;;;;;50.95;30.25;;;11.40;99.90;;;;;;5048752;28;20028;-56
2021/10/17 01:21:47;;;;;;;47.45;28.63;;;11.40;99.90;;;;;;5050834;28;20028;-57
2021/10/17 01:24:14;;;;;;;45.58;28.90;;;11.40;99.90;;;;;;5049053;28;20394;-58
2021/10/17 01:26:40;;;;;;;54.10;29.80;;;11.40;99.90;;;;;;5051064;28;20017;-58
2021/10/17 01:29:07;;;;;;;51.33;29.92;;;11.40;99.90;;;;;;5047955;28;20035;-54
2021/10/17 01:31:41;;;;;;;47.13;28.70;;;11.30;99.90;;;;;;5050327;28;20067;-57
2021/10/17 01:34:08;;;;;;;46.03;28.58;;;11.30;99.90;;;;;;5031802;28;20037;-55
2021/10/17 01:36:36;;;;;;;48.47;29.73;;;11.30;99.90;;;;;;5050820;28;20102;-58
2021/10/17 01:39:03;;;;;;;49.53;28.67;;;11.30;99.90;;;;;;5049915;28;20099;-58
2021/10/17 01:41:29;;;;;;;49.97;28.60;;;11.30;99.90;;;;;;5040477;28;20036;-55
2021/10/17 01:44:02;;;;;;;54.42;28.42;;;11.30;99.90;;;;;;5046374;28;20032;-56
2021/10/17 01:46:27;;;;;;;50.63;28.83;;;11.20;99.90;;;;;;5039573;28;20021;-56
2021/10/17 01:48:53;;;;;;;47.75;28.33;;;11.20;99.90;;;;;;5049633;28;20048;-57
2021/10/17 01:51:19;;;;;;;49.70;29.60;;;11.20;99.90;;;;;;5050192;28;20406;-55
2021/10/17 01:53:45;;;;;;;50.40;29.95;;;11.20;99.90;;;;;;5050023;28;20044;-58
2021/10/17 01:56:11;;;;;;;46.20;28.40;;;11.20;99.90;;;;;;5050370;28;20033;-57
2021/10/17 01:58:36;;;;;;;55.30;30.33;;;11.20;99.90;;;;;;5050592;28;20040;-56
2021/10/17 02:01:03;;;;;;;56.17;31.67;;;11.20;99.90;;;;;;5049371;28;20056;-56
2021/10/17 02:03:29;;;;;;;54.03;30.25;;;11.20;99.90;;;;;;5050304;28;20099;-57
2021/10/17 02:05:55;;;;;;;52.63;29.05;;;11.20;99.90;;;;;;5049642;28;20029;-60
2021/10/17 02:08:21;;;;;;;48.95;29.52;;;11.20;99.90;;;;;;5050703;28;20114;-59
2021/10/17 02:10:46;;;;;;;52.33;29.92;;;11.20;99.90;;;;;;5049173;28;20048;-59
2021/10/17 02:13:13;;;;;;;54.17;30.48;;;11.20;99.90;;;;;;5049580;28;20025;-59
2021/10/17 02:15:39;;;;;;;58.85;29.52;;;11.20;99.90;;;;;;5053069;28;20037;-55
2021/10/17 02:18:05;;;;;;;52.78;29.25;;;11.30;99.90;;;;;;5054320;28;20044;-58
2021/10/17 02:20:34;;;;;;;54.25;29.85;;;11.30;99.90;;;;;;5053252;28;20033;-58
2021/10/17 02:23:01;;;;;;;57.38;31.33;;;11.30;99.90;;;;;;5052213;28;20032;-58
2021/10/17 02:25:27;;;;;;;56.25;30.77;;;11.30;99.90;;;;;;5033574;28;20375;-59
2021/10/17 02:27:52;;;;;;;67.22;30.65;;;11.30;99.90;;;;;;5052613;28;20036;-56
2021/10/17 02:30:18;;;;;;;56.45;30.45;;;11.30;99.90;;;;;;5038997;28;20041;-58
2021/10/17 02:32:44;;;;;;;52.42;29.40;;;11.30;99.90;;;;;;5054547;28;20045;-57
2021/10/17 02:35:09;;;;;;;54.55;29.92;;;11.30;99.90;;;;;;5053178;28;20060;-57
2021/10/17 02:37:35;;;;;;;61.53;30.92;;;11.30;99.90;;;;;;5052568;28;20025;-56
2021/10/17 02:40:01;;;;;;;54.47;29.45;;;11.30;99.90;;;;;;5053130;28;20094;-58
2021/10/17 02:42:27;;;;;;;55.83;31.23;;;11.40;99.90;;;;;;5039504;28;20451;-60
2021/10/17 02:44:52;;;;;;;56.65;29.05;;;11.40;99.90;;;;;;5052636;28;20029;-59
2021/10/17 02:47:18;;;;;;;63.47;31.00;;;11.40;99.90;;;;;;5049643;28;20037;-57
2021/10/17 02:49:44;;;;;;;54.97;30.27;;;11.40;99.90;;;;;;5039035;28;20030;-58
2021/10/17 02:52:10;;;;;;;57.33;31.00;;;11.40;99.90;;;;;;5047623;28;20068;-58
2021/10/17 02:54:35;;;;;;;61.33;31.35;;;11.40;99.90;;;;;;5041083;28;20086;-59
2021/10/17 02:57:01;;;;;;;55.45;30.45;;;11.40;99.90;;;;;;5053609;28;20143;-58
2021/10/17 02:59:27;;;;;;;60.17;32.65;;;11.40;99.90;;;;;;5038888;28;20505;-58
2021/10/17 03:01:52;;;;;;;56.75;31.85;;;11.30;99.90;;;;;;5053566;28;20028;-57
2021/10/17 03:04:18;;;;;;;59.03;31.85;;;11.30;99.90;;;;;;5052467;28;20417;-57
2021/10/17 03:06:44;;;;;;;55.42;31.33;;;11.30;99.90;;;;;;5053035;28;20029;-58
2021/10/17 03:09:10;;;;;;;55.70;31.23;;;11.20;99.90;;;;;;5053159;28;20060;-59
2021/10/17 03:11:36;;;;;;;56.30;32.45;;;11.20;99.90;;;;;;5052903;28;20072;-58
2021/10/17 03:14:05;;;;;;;53.35;31.77;;;11.20;99.90;;;;;;5053400;28;20368;-58
2021/10/17 03:16:30;;;;;;;53.42;31.33;;;11.20;99.90;;;;;;5038697;28;20066;-56
2021/10/17 03:18:56;;;;;;;58.53;30.88;;;11.20;99.90;;;;;;5053070;28;20201;-57
2021/10/17 03:21:22;;;;;;;56.95;31.27;;;11.20;99.90;;;;;;5038347;28;20021;-58
2021/10/17 03:23:48;;;;;;;57.97;31.63;;;11.20;99.90;;;;;;5042669;28;20472;-58
2021/10/17 03:26:14;;;;;;;46.47;29.08;;;11.20;99.90;;;;;;5047621;28;20025;-54
2021/10/17 03:28:40;;;;;;;47.55;30.27;;;11.30;99.90;;;;;;5052796;28;20360;-58
2021/10/17 03:31:07;;;;;;;54.55;29.65;;;11.40;99.90;;;;;;5052053;28;20487;-60
2021/10/17 03:33:34;;;;;;;46.10;28.92;;;11.30;99.90;;;;;;5052965;28;20035;-57
2021/10/17 03:36:00;;;;;;;55.17;30.35;;;11.30;99.90;;;;;;5052169;28;20031;-56
2021/10/17 03:38:25;;;;;;;48.10;28.70;;;11.30;99.90;;;;;;5052479;28;20032;-59
2021/10/17 03:40:51;;;;;;;45.97;28.10;;;11.30;99.90;;;;;;5051572;28;20045;-56
2021/10/17 03:43:17;;;;;;;46.53;28.65;;;11.30;99.90;;;;;;5034615;28;20036;-59
2021/10/17 03:45:42;;;;;;;48.47;28.40;;;11.30;99.90;;;;;;5051171;28;20021;-57
2021/10/17 03:48:08;;;;;;;50.75;29.40;;;11.30;99.90;;;;;;5052456;28;20132;-59
2021/10/17 03:50:34;;;;;;;49.72;29.05;;;11.20;99.90;;;;;;5051493;28;20056;-58
2021/10/17 03:53:00;;;;;;;44.00;27.13;;;11.20;99.90;;;;;;5052646;28;20047;-59
2021/10/17 03:55:26;;;;;;;47.88;27.85;;;11.20;99.90;;;;;;5034056;28;20099;-58
2021/10/17 03:57:52;;;;;;;43.45;27.65;;;11.30;99.90;;;;;;5051730;28;20036;-60
2021/10/17 04:00:18;;;;;;;46.58;27.10;;;11.30;99.90;;;;;;5051837;28;20040;-59
2021/10/17 04:02:44;;;;;;;43.95;25.85;;;11.30;99.90;;;;;;5038334;28;20059;-59
2021/10/17 04:05:09;;;;;;;40.90;25.83;;;11.30;99.90;;;;;;5051590;28;20086;-60
2021/10/17 04:07:37;;;;;;;44.75;25.77;;;11.40;99.90;;;;;;5052024;28;20398;-58
2021/10/17 04:10:03;;;;;;;41.50;25.70;;;11.40;99.90;;;;;;5051651;28;20039;-58
2021/10/17 04:12:29;;;;;;;46.95;27.05;;;11.40;99.90;;;;;;5051479;28;20068;-58
2021/10/17 04:14:55;;;;;;;44.53;26.20;;;11.40;99.90;;;;;;5051739;28;20091;-59
2021/10/17 04:17:20;;;;;;;45.95;25.83;;;11.40;99.90;;;;;;5050842;28;20029;-59
2021/10/17 04:19:46;;;;;;;43.67;25.42;;;11.40;99.90;;;;;;5051096;28;20021;-57
2021/10/17 04:22:12;;;;;;;43.33;24.48;;;11.50;99.90;;;;;;5051871;28;20036;-59
2021/10/17 04:24:37;;;;;;;42.85;24.23;;;11.50;99.90;;;;;;5050771;28;20100;-58
2021/10/17 04:27:07;;;;;;;39.92;23.95;;;11.50;99.90;;;;;;5050850;28;20493;-59
2021/10/17 04:29:34;;;;;;;40.50;24.95;;;11.50;99.90;;;;;;5051682;28;20040;-58
2021/10/17 04:32:00;;;;;;;38.75;23.35;;;11.50;99.90;;;;;;5051036;28;20045;-59
2021/10/17 04:34:25;;;;;;;40.88;23.20;;;11.50;99.90;;;;;;5051858;28;20467;-57
2021/10/17 04:36:51;;;;;;;34.08;22.10;;;11.50;99.90;;;;;;5049607;28;20068;-58
2021/10/17 04:39:17;;;;;;;35.10;22.60;;;11.60;99.90;;;;;;5051613;28;20377;-58
2021/10/17 04:41:43;;;;;;;40.92;24.00;;;11.60;99.90;;;;;;5050714;28;20497;-58
2021/10/17 04:44:08;;;;;;;38.53;23.27;;;11.60;99.90;;;;;;5037621;28;20029;-57
2021/10/17 04:46:34;;;;;;;37.03;22.27;;;11.60;99.90;;;;;;5038953;28;20407;-58
2021/10/17 04:49:00;;;;;;;38.60;22.77;;;11.50;99.90;;;;;;5042485;28;20025;-58
2021/10/17 04:51:25;;;;;;;40.58;22.63;;;11.60;99.90;;;;;;5040990;28;20483;-58
2021/10/17 04:53:51;;;;;;;36.15;21.92;;;11.60;99.90;;;;;;5047334;28;20552;-56
2021/10/17 04:56:17;;;;;;;34.22;21.33;;;11.60;99.90;;;;;;5050393;28;20039;-58
2021/10/17 04:58:42;;;;;;;38.20;22.02;;;11.60;99.90;;;;;;5049906;28;20115;-60
2021/10/17 05:01:09;;;;;;;32.95;20.75;;;11.60;99.90;;;;;;5050538;28;20029;-58
2021/10/17 05:03:35;;;;;;;40.25;22.50;;;11.70;99.90;;;;;;5051187;28;20104;-58
2021/10/17 05:06:01;;;;;;;33.60;19.98;;;11.80;99.90;;;;;;5050393;28;20463;-60
2021/10/17 05:08:27;;;;;;;34.20;20.65;;;11.80;99.90;;;;;;5051030;28;20463;-56
2021/10/17 05:10:52;;;;;;;29.85;19.98;;;11.80;99.90;;;;;;5049903;28;20033;-59
2021/10/17 05:13:18;;;;;;;37.08;20.38;;;11.80;99.90;;;;;;5046072;28;20036;-57
2021/10/17 05:15:44;;;;;;;31.05;19.55;;;11.80;99.90;;;;;;5050690;28;20033;-60
2021/10/17 05:18:10;;;;;;;32.22;20.05;;;11.90;99.90;;;;;;5047906;28;20029;-58
2021/10/17 05:20:35;;;;;;;35.42;20.40;;;11.90;99.90;;;;;;5050202;28;20040;-60
2021/10/17 05:23:01;;;;;;;33.80;19.70;;;11.90;99.90;;;;;;5046994;28;20017;-56
2021/10/17 05:25:27;;;;;;;33.65;20.00;;;11.90;99.90;;;;;;5021697;28;20179;-56
2021/10/17 05:27:53;;;;;;;35.15;21.40;;;11.90;99.90;;;;;;5050287;28;20037;-59
2021/10/17 05:30:19;;;;;;;31.80;21.00;;;12.00;99.90;;;;;;5049090;28;20052;-59
2021/10/17 05:32:44;;;;;;;33.10;19.67;;;12.00;99.90;;;;;;5050218;28;20072;-58
2021/10/17 05:35:10;;;;;;;35.03;20.35;;;12.00;99.90;;;;;;5036462;28;20037;-58
2021/10/17 05:37:36;;;;;;;32.97;20.10;;;12.00;99.90;;;;;;5049989;28;20100;-58
2021/10/17 05:40:02;;;;;;;33.15;20.23;;;12.00;99.90;;;;;;5050610;28;20029;-59
2021/10/17 05:42:28;;;;;;;37.88;22.02;;;11.90;99.90;;;;;;5050358;28;20036;-57
2021/10/17 05:44:53;;;;;;;31.75;20.52;;;11.90;99.90;;;;;;5050250;28;20037;-60
2021/10/17 05:47:19;;;;;;;38.88;21.10;;;11.90;99.90;;;;;;5051561;28;20021;-55
2021/10/17 05:49:45;;;;;;;34.22;20.45;;;11.90;99.90;;;;;;5054427;28;20170;-54
2021/10/17 05:52:11;;;;;;;32.88;20.83;;;11.90;99.90;;;;;;5053329;28;20052;-56
2021/10/17 05:54:37;;;;;;;36.17;20.58;;;11.90;99.90;;;;;;5047672;28;20026;-55
2021/10/17 05:57:03;;;;;;;33.40;19.88;;;11.90;99.90;;;;;;5053962;28;20071;-60
2021/10/17 05:59:28;;;;;;;35.90;20.02;;;11.90;99.90;;;;;;5054709;28;20360;-58
2021/10/17 06:01:54;;;;;;;31.90;20.20;;;11.90;99.90;;;;;;5053349;28;20029;-59
2021/10/17 06:04:20;;;;;;;30.52;19.65;;;11.90;99.90;;;;;;5054466;28;20033;-55
2021/10/17 06:06:46;;;;;;;31.50;20.70;;;11.90;99.90;;;;;;5043756;28;20391;-55
2021/10/17 06:09:11;;;;;;;37.35;19.27;;;12.00;99.90;;;;;;5050461;28;20116;-60
2021/10/17 06:11:37;;;;;;;35.20;19.63;;;12.00;99.90;;;;;;5053339;28;20040;-57
2021/10/17 06:14:04;;;;;;;33.10;19.80;;;12.10;99.90;;;;;;5054161;28;20039;-59
2021/10/17 06:16:30;;;;;;;30.98;20.00;;;12.10;99.90;;;;;;5047547;28;20022;-57
2021/10/17 06:18:56;;;;;;;31.02;19.77;;;12.10;99.90;;;;;;5039264;28;20051;-58
2021/10/17 06:21:21;;;;;;;37.50;22.63;;;12.10;99.90;;;;;;5053183;28;20059;-57
2021/10/17 06:23:47;;;;;;;30.45;19.90;;;12.20;99.90;;;;;;5054385;28;20031;-57
2021/10/17 06:26:13;;;;;;;32.17;19.60;;;12.20;99.90;;;;;;5053280;28;20098;-59
2021/10/17 06:28:38;;;;;;;32.53;20.45;;;12.10;99.90;;;;;;5054124;28;20063;-59
2021/10/17 06:31:04;;;;;;;31.23;20.27;;;12.10;99.90;;;;;;5052785;28;20536;-58
2021/10/17 06:33:30;;;;;;;32.20;20.58;;;12.10;99.90;;;;;;5053976;28;20078;-56
2021/10/17 06:35:55;;;;;;;32.92;21.27;;;12.10;99.90;;;;;;5052753;28;20025;-58
2021/10/17 06:38:21;;;;;;;30.25;20.23;;;12.10;99.90;;;;;;5053457;28;20104;-57
2021/10/17 06:40:46;;;;;;;32.17;20.58;;;12.10;99.90;;;;;;5053404;28;20017;-59
2021/10/17 06:43:12;;;;;;;31.73;20.15;;;12.10;99.90;;;;;;5053744;28;20111;-58
2021/10/17 06:45:38;;;;;;;34.42;20.33;;;12.20;99.90;;;;;;5053330;28;20395;-58
2021/10/17 06:48:04;;;;;;;28.48;20.08;;;12.20;99.90;;;;;;5053414;28;20025;-57
2021/10/17 06:50:29;;;;;;;27.83;19.52;;;12.10;99.90;;;;;;5053100;28;20544;-59
2021/10/17 06:52:55;;;;;;;36.80;21.08;;;12.20;99.90;;;;;;5052911;28;20096;-58
2021/10/17 06:55:21;;;;;;;29.38;19.70;;;12.20;99.90;;;;;;5053531;28;20033;-60
2021/10/17 06:57:47;;;;;;;39.88;20.27;;;12.20;99.90;;;;;;5052626;28;20021;-58
2021/10/17 07:00:13;;;;;;;30.20;19.60;;;12.20;99.90;;;;;;5052506;28;20485;-59
2021/10/17 07:02:39;;;;;;;28.17;18.65;;;12.20;99.90;;;;;;5038620;28;20021;-58
2021/10/17 07:05:06;;;;;;;34.42;19.02;;;12.30;99.90;;;;;;5053531;28;20040;-59
2021/10/17 07:07:32;;;;;;;36.90;20.17;;;12.40;99.90;;;;;;5052164;28;20083;-58
2021/10/17 07:09:58;;;;;;;31.50;19.40;;;12.30;99.90;;;;;;5053653;28;20090;-54
2021/10/17 07:12:24;;;;;;;30.33;19.02;;;12.30;99.90;;;;;;5052301;28;20041;-59
2021/10/17 07:14:52;;;;;;;31.27;18.73;;;12.30;99.90;;;;;;5053766;28;20108;-56
2021/10/17 07:17:18;;;;;;;31.08;18.02;;;12.30;99.90;;;;;;5052539;28;20082;-58
2021/10/17 07:19:44;;;;;;;31.02;18.52;;;12.30;99.90;;;;;;5046804;28;20088;-58
2021/10/17 07:22:09;;;;;;;28.30;16.88;;;12.30;99.90;;;;;;5043488;28;20021;-55
2021/10/17 07:24:36;;;;;;;30.80;17.40;;;12.30;99.90;;;;;;5052925;28;20025;-56
2021/10/17 07:27:01;;;;;;;26.75;16.90;;;12.30;99.90;;;;;;5051789;28;20036;-58
2021/10/17 07:29:27;;;;;;;23.67;15.85;;;12.40;99.90;;;;;;5052721;28;20394;-58
2021/10/17 07:31:53;;;;;;;24.00;16.25;;;12.40;99.90;;;;;;5052016;28;20049;-56
2021/10/17 07:34:19;;;;;;;26.23;16.05;;;12.40;99.90;;;;;;5052806;28;20117;-58
2021/10/17 07:36:44;;;;;;;24.88;16.55;;;12.50;99.90;;;;;;5039174;28;20029;-57
2021/10/17 07:39:13;;;;;;;32.00;15.90;;;12.50;99.90;;;;;;5052947;28;20033;-58
2021/10/17 07:41:41;;;;;;;25.20;16.00;;;12.50;99.90;;;;;;5052194;28;20072;-58
2021/10/17 07:44:07;;;;;;;26.15;15.07;;;12.50;99.90;;;;;;5052570;28;20055;-59
2021/10/17 07:46:33;;;;;;;24.33;14.98;;;12.50;99.90;;;;;;5051662;28;20057;-59
2021/10/17 07:49:00;;;;;;;27.88;14.00;;;12.50;99.90;;;;;;5052353;28;20029;-59
2021/10/17 07:51:26;;;;;;;24.33;14.05;;;12.60;99.90;;;;;;5051500;28;20453;-59
2021/10/17 07:53:53;;;;;;;28.02;15.18;;;12.60;99.90;;;;;;5051898;28;20362;-58
2021/10/17 07:56:18;;;;;;;20.98;13.30;;;12.60;99.90;;;;;;5051708;28;20033;-57
2021/10/17 07:58:44;;;;;;;25.05;14.48;;;12.70;99.90;;;;;;5052058;28;20039;-56
2021/10/17 08:01:10;;;;;;;23.48;14.40;;;12.70;99.90;;;;;;5051479;28;20047;-59
2021/10/17 08:03:36;;;;;;;24.73;14.23;;;12.70;99.90;;;;;;5052233;28;20475;-57
2021/10/17 08:06:02;;;;;;;26.48;14.93;;;12.80;99.90;;;;;;5052125;28;20013;-55
2021/10/17 08:08:27;;;;;;;24.50;13.43;;;12.80;99.90;;;;;;5051212;28;20097;-58
2021/10/17 08:10:53;;;;;;;21.35;13.52;;;12.80;99.90;;;;;;5050816;28;20068;-58
2021/10/17 08:13:19;;;;;;;26.38;13.40;;;12.80;99.90;;;;;;5051678;28;20536;-59
2021/10/17 08:15:45;;;;;;;28.40;15.13;;;12.90;99.90;;;;;;5034248;28;20037;-60
2021/10/17 08:18:11;;;;;;;22.58;13.82;;;12.90;99.90;;;;;;5050977;28;20025;-58
2021/10/17 08:20:37;;;;;;;26.48;14.25;;;12.90;99.90;;;;;;5050610;28;20390;-59
2021/10/17 08:23:02;;;;;;;20.42;13.90;;;12.90;99.90;;;;;;5033236;28;20029;-59
2021/10/17 08:25:31;;;;;;;28.20;14.25;;;12.90;99.90;;;;;;5052305;28;20025;-58
2021/10/17 08:27:58;;;;;;;25.77;13.68;;;13.00;99.90;;;;;;5050666;28;20021;-58
2021/10/17 08:30:23;;;;;;;23.08;14.25;;;13.00;99.90;;;;;;5051859;28;20056;-56
2021/10/17 08:32:49;;;;;;;22.45;13.48;;;13.00;99.90;;;;;;5050947;28;20142;-57
2021/10/17 08:35:15;;;;;;;21.13;13.02;;;13.00;99.90;;;;;;5027584;28;20033;-58
2021/10/17 08:37:41;;;;;;;19.73;13.25;;;13.00;99.90;;;;;;5043644;28;20033;-58
2021/10/17 08:40:08;;;;;;;24.52;13.32;;;13.00;99.90;;;;;;5051869;28;20031;-59
2021/10/17 08:42:36;;;;;;;27.63;13.85;;;13.10;99.90;;;;;;5050844;28;20025;-57
2021/10/17 08:45:06;;;;;;;22.10;12.68;;;13.00;99.90;;;;;;5038605;28;20043;-60
2021/10/17 08:47:33;;;;;;;24.45;13.13;;;13.10;99.90;;;;;;5050442;28;20025;-58
2021/10/17 08:49:59;;;;;;;24.45;13.45;;;13.10;99.90;;;;;;5051224;28;20025;-55
2021/10/17 08:52:25;;;;;;;22.77;13.43;;;13.10;99.90;;;;;;5036227;28;20068;-56
2021/10/17 08:54:51;;;;;;;23.75;12.95;;;13.20;99.90;;;;;;5051538;28;20056;-58
2021/10/17 08:57:17;;;;;;;24.58;12.27;;;13.10;99.90;;;;;;5036566;28;20026;-55
2021/10/17 08:59:50;;;;;;;22.52;13.00;;;13.20;99.90;;;;;;5051131;28;20087;-61
2021/10/17 09:02:18;;;;;;;26.17;12.38;;;13.20;99.90;;;;;;5050557;28;20099;-55
2021/10/17 09:05:01;;;;;;;23.50;12.90;;;13.20;99.90;;;;;;5050965;28;20068;-57
2021/10/17 09:07:27;;;;;;;23.45;12.32;;;13.20;99.90;;;;;;5050408;28;20029;-57
2021/10/17 09:10:11;;;;;;;22.90;12.73;;;13.20;99.90;;;;;;5050977;28;20033;-58
2021/10/17 09:12:40;;;;;;;26.67;12.15;;;13.30;99.90;;;;;;5050252;28;20112;-58
2021/10/17 09:15:24;;;;;;;20.88;12.20;;;13.40;99.90;;;;;;5051008;28;20521;-58
2021/10/17 09:18:02;;;;;;;19.98;11.35;;;13.40;99.90;;;;;;5050122;28;20367;-59
2021/10/17 09:20:28;;;;;;;21.20;11.68;;;13.40;99.90;;;;;;5050324;28;20112;-58
2021/10/17 09:23:02;;;;;;;29.05;11.82;;;13.40;99.90;;;;;;5049440;28;20163;-60
2021/10/17 09:25:33;;;;;;;21.85;10.95;;;13.40;99.90;;;;;;5051114;28;20375;-61
2021/10/17 09:27:59;;;;;;;20.70;11.20;;;13.50;99.90;;;;;;5049346;28;20483;-59
2021/10/17 09:30:25;;;;;;;24.75;11.85;;;13.50;99.90;;;;;;5050550;28;20052;-56
2021/10/17 09:33:08;;;;;;;21.42;11.48;;;13.50;99.90;;;;;;5049673;28;20063;-57
2021/10/17 09:35:35;;;;;;;19.58;11.15;;;13.50;99.90;;;;;;5050330;28;20045;-56
2021/10/17 09:38:01;;;;;;;18.92;11.23;;;13.60;99.90;;;;;;5049979;28;20106;-57
2021/10/17 09:40:28;;;;;;;33.03;20.13;;;13.60;99.90;;;;;;5040564;28;20348;-56
2021/10/17 09:43:23;;;;;;;76.88;50.22;;;13.70;99.90;;;;;;5049648;28;20037;-58
2021/10/17 09:45:49;;;;;;;96.90;48.03;;;13.80;99.90;;;;;;5048718;28;20041;-58
2021/10/17 09:48:30;;;;;;;51.53;33.08;;;13.70;99.90;;;;;;5050205;28;20037;-59
2021/10/17 09:51:04;;;;;;;30.30;13.05;;;13.80;99.90;;;;;;5040530;28;20048;-57
2021/10/17 09:53:52;;;;;;;20.20;11.90;;;13.80;99.90;;;;;;5050015;28;20043;-60
2021/10/17 09:56:30;;;;;;;21.60;12.68;;;13.80;99.90;;;;;;5050655;28;20559;-58
2021/10/17 09:59:00;;;;;;;24.17;10.55;;;13.90;99.90;;;;;;5049444;28;20479;-58
2021/10/17 10:01:26;;;;;;;23.00;11.60;;;14.00;99.90;;;;;;5050631;28;20025;-57
2021/10/17 10:03:54;;;;;;;20.60;10.75;;;14.00;99.90;;;;;;5049439;28;20486;-59
2021/10/17 10:06:23;;;;;;;26.05;10.82;;;14.10;99.90;;;;;;5043935;28;20030;-59
2021/10/17 10:08:53;;;;;;;16.20;10.05;;;14.10;99.90;;;;;;5029938;28;20395;-58
2021/10/17 10:11:23;;;;;;;25.73;10.13;;;14.10;99.90;;;;;;5036126;28;20122;-59
2021/10/17 10:13:51;;;;;;;17.70;9.73;;;14.20;99.90;;;;;;5049800;28;20056;-55
2021/10/17 10:16:23;;;;;;;20.65;10.00;;;14.20;99.90;;;;;;5050166;28;20033;-56
2021/10/17 10:18:52;;;;;;;21.98;10.88;;;14.30;99.90;;;;;;5048739;28;20035;-58
2021/10/17 10:21:18;;;;;;;18.80;10.23;;;14.30;99.90;;;;;;5050364;28;20025;-61
2021/10/17 10:23:44;;;;;;;18.25;9.65;;;14.20;99.90;;;;;;5049186;28;20450;-59
2021/10/17 10:26:11;;;;;;;18.42;10.45;;;14.30;99.90;;;;;;5050543;28;20029;-60
2021/10/17 10:28:41;;;;;;;15.00;8.63;;;14.30;99.90;;;;;;5049427;28;20423;-57
2021/10/17 10:31:06;;;;;;;17.15;9.55;;;14.40;99.90;;;;;;5018389;28;20049;-57
2021/10/17 10:33:42;;;;;;;19.27;9.20;;;14.40;99.90;;;;;;5049324;28;20528;-59
2021/10/17 10:36:13;;;;;;;16.77;9.68;;;14.40;99.90;;;;;;5054193;28;20386;-57
2021/10/17 10:38:51;;;;;;;26.75;9.77;;;14.50;99.90;;;;;;5049923;28;20495;-59
2021/10/17 10:41:22;;;;;;;15.82;9.32;;;14.60;99.90;;;;;;5053689;28;20040;-59
2021/10/17 10:43:49;;;;;;;16.02;9.00;;;14.60;99.90;;;;;;5049630;28;20033;-58
2021/10/17 10:46:30;;;;;;;14.55;7.93;;;14.60;99.90;;;;;;5051085;28;20033;-59
2021/10/17 10:48:56;;;;;;;12.45;8.07;;;14.60;99.90;;;;;;5049289;28;20033;-60
2021/10/17 10:51:39;;;;;;;16.67;9.05;;;14.50;99.90;;;;;;5042828;28;20037;-57
2021/10/17 10:54:05;;;;;;;21.02;8.95;;;14.60;99.90;;;;;;5052746;28;20052;-59
2021/10/17 10:56:37;;;;;;;16.10;8.82;;;14.60;99.90;;;;;;5053561;28;20724;-61
2021/10/17 10:59:03;;;;;;;15.63;8.82;;;14.60;99.90;;;;;;5052275;28;20467;-57
2021/10/17 11:01:54;;;;;;;18.27;9.75;;;14.60;99.90;;;;;;5053555;28;20493;-58
2021/10/17 11:04:38;;;;;;;17.85;8.43;;;14.70;99.90;;;;;;5052093;28;20041;-59
2021/10/17 11:07:29;;;;;;;18.30;8.70;;;14.70;99.90;;;;;;5053533;28;20041;-57
2021/10/17 11:09:56;;;;;;;19.42;9.48;;;14.70;99.90;;;;;;5033239;28;20434;-56
2021/10/17 11:12:41;;;;;;;16.77;9.10;;;14.70;99.90;;;;;;5047272;28;20037;-58
2021/10/17 11:15:09;;;;;;;20.80;10.43;;;14.70;99.90;;;;;;5053562;28;20509;-57
2021/10/17 11:17:35;;;;;;;16.15;9.77;;;14.70;99.90;;;;;;5051573;28;20028;-57
2021/10/17 11:20:01;;;;;;;18.42;9.05;;;14.70;99.90;;;;;;5052926;28;20033;-58
2021/10/17 11:22:27;;;;;;;15.63;9.20;;;14.70;99.90;;;;;;5052674;28;20027;-58
2021/10/17 11:24:56;;;;;;;17.17;8.98;;;14.70;99.90;;;;;;5034500;28;20029;-60
2021/10/17 11:27:24;;;;;;;17.48;8.77;;;14.70;99.90;;;;;;5044186;28;20544;-59
2021/10/17 11:29:49;;;;;;;15.68;8.93;;;14.70;99.90;;;;;;5048091;28;20037;-59
2021/10/17 11:32:17;;;;;;;14.88;9.40;;;14.80;99.90;;;;;;5042421;28;20037;-58
2021/10/17 11:35:03;;;;;;;15.52;8.25;;;14.80;99.90;;;;;;5048723;28;20039;-58
2021/10/17 11:37:31;;;;;;;15.45;8.57;;;14.80;99.90;;;;;;5052709;28;20028;-55
2021/10/17 11:40:08;;;;;;;18.33;9.82;;;14.80;99.90;;;;;;5052192;28;20059;-58
2021/10/17 11:42:47;;;;;;;19.98;9.05;;;14.90;99.90;;;;;;5034631;28;20033;-57
2021/10/17 11:45:20;;;;;;;16.40;10.13;;;14.90;99.90;;;;;;5043929;28;20082;-59
2021/10/17 11:47:51;;;;;;;19.02;11.85;;;14.90;99.90;;;;;;5051456;28;20044;-59
2021/10/17 11:50:25;;;;;;;15.27;9.27;;;15.00;99.90;;;;;;5051858;28;20051;-59
2021/10/17 11:53:00;;;;;;;18.77;9.45;;;15.10;99.90;;;;;;5051546;28;20099;-56
2021/10/17 11:55:28;;;;;;;22.42;8.82;;;15.30;99.90;;;;;;5052312;28;20033;-60
2021/10/17 11:57:54;;;;;;;16.70;8.20;;;15.30;99.90;;;;;;5050668;28;20490;-56
2021/10/17 12:00:25;;;;;;;15.50;8.23;;;15.40;99.90;;;;;;5052253;28;20039;-58
2021/10/17 12:02:51;;;;;;;17.55;9.88;;;15.50;99.90;;;;;;5033820;28;20031;-58
2021/10/17 12:05:19;;;;;;;17.20;8.88;;;15.40;99.90;;;;;;5052704;28;20040;-59
2021/10/17 12:07:45;;;;;;;19.90;8.32;;;15.50;99.90;;;;;;5050150;28;20390;-59
2021/10/17 12:10:11;;;;;;;25.13;12.52;;;15.60;99.90;;;;;;5051776;28;20029;-57
2021/10/17 12:12:41;;;;;;;21.77;12.00;;;15.60;99.90;;;;;;5051704;28;20033;-58
2021/10/17 12:15:13;;;;;;;24.50;10.73;;;15.60;99.90;;;;;;5050987;28;20029;-58
2021/10/17 12:17:39;;;;;;;12.68;7.15;;;15.60;99.90;;;;;;5051573;28;20047;-60
2021/10/17 12:20:14;;;;;;;13.65;7.22;;;15.70;99.90;;;;;;5043476;28;20030;-57
2021/10/17 12:22:45;;;;;;;15.20;8.07;;;15.70;99.90;;;;;;5032957;28;20117;-58
2021/10/17 12:25:12;;;;;;;20.67;8.00;;;15.70;99.90;;;;;;5045122;28;20061;-57
2021/10/17 12:27:44;;;;;;;14.50;6.32;;;15.80;99.90;;;;;;5038454;28;20029;-58
2021/10/17 12:30:16;;;;;;;14.15;6.22;;;15.80;99.90;;;;;;5047617;28;20048;-59